sensor_id;sensor_type;location;lat;lon;timestamp;temperature;humidity
29353;DHT22;16344;50.364;8.944;2023-02-03T00:00:24;7.80;1.00
29353;DHT22;16344;50.364;8.944;2023-02-03T00:02:51;7.80;1.00
29353;DHT22;16344;50.364;8.944;2023-02-03T00:05:17;7.80;1.00
29353;DHT22;16344;50.364;8.944;2023-02-03T00:07:42;7.80;1.00
29353;DHT22;16344;50.364;8.944;2023-02-03T00:10:09;7.80;1.00
29353;DHT22;16344;50.364;8.944;2023-02-03T00:12:34;7.70;1.00
29353;DHT22;16344;50.364;8.944;2023-02-03T00:15:00;7.80;1.00
29353;DHT22;16344;50.364;8.944;2023-02-03T00:17:26;7.70;1.00
29353;DHT22;16344;50.364;8.944;2023-02-03T00:19:51;7.70;1.00
29353;DHT22;16344;50.364;8.944;2023-02-03T00:22:17;7.70;1.00
29353;DHT22;16344;50.364;8.944;2023-02-03T00:24:42;7.70;1.00
29353;DHT22;16344;50.364;8.944;2023-02-03T00:27:08;7.80;1.00
29353;DHT22;16344;50.364;8.944;2023-02-03T00:29:33;7.80;1.00
29353;DHT22;16344;50.364;8.944;2023-02-03T00:31:59;7.80;1.00
29353;DHT22;16344;50.364;8.944;2023-02-03T00:34:29;7.80;1.00
29353;DHT22;16344;50.364;8.944;2023-02-03T00:36:55;7.80;1.00
29353;DHT22;16344;50.364;8.944;2023-02-03T00:39:20;7.80;1.00
29353;DHT22;16344;50.364;8.944;2023-02-03T00:41:46;7.70;1.00
29353;DHT22;16344;50.364;8.944;2023-02-03T00:44:12;7.70;1.00
29353;DHT22;16344;50.364;8.944;2023-02-03T00:46:37;7.80;1.00
29353;DHT22;16344;50.364;8.944;2023-02-03T00:49:04;7.70;1.00
29353;DHT22;16344;50.364;8.944;2023-02-03T00:51:30;7.70;1.00
29353;DHT22;16344;50.364;8.944;2023-02-03T00:53:55;7.70;1.00
29353;DHT22;16344;50.364;8.944;2023-02-03T00:56:21;7.70;1.00
29353;DHT22;16344;50.364;8.944;2023-02-03T00:58:46;7.60;1.00
29353;DHT22;16344;50.364;8.944;2023-02-03T01:01:12;7.60;1.00
29353;DHT22;16344;50.364;8.944;2023-02-03T01:03:38;7.60;1.00
29353;DHT22;16344;50.364;8.944;2023-02-03T01:06:10;7.50;1.00
29353;DHT22;16344;50.364;8.944;2023-02-03T01:08:36;7.60;1.00
29353;DHT22;16344;50.364;8.944;2023-02-03T01:11:12;7.60;1.00
29353;DHT22;16344;50.364;8.944;2023-02-03T01:13:38;7.60;1.00
29353;DHT22;16344;50.364;8.944;2023-02-03T01:16:12;7.60;1.00
29353;DHT22;16344;50.364;8.944;2023-02-03T01:18:39;7.50;1.00
29353;DHT22;16344;50.364;8.944;2023-02-03T01:21:11;7.50;1.00
29353;DHT22;16344;50.364;8.944;2023-02-03T01:23:37;7.60;1.00
29353;DHT22;16344;50.364;8.944;2023-02-03T01:26:04;7.50;1.00
29353;DHT22;16344;50.364;8.944;2023-02-03T01:28:30;7.50;1.00
29353;DHT22;16344;50.364;8.944;2023-02-03T01:30:56;7.50;1.00
29353;DHT22;16344;50.364;8.944;2023-02-03T01:33:22;7.50;1.00
29353;DHT22;16344;50.364;8.944;2023-02-03T01:35:47;7.50;1.00
29353;DHT22;16344;50.364;8.944;2023-02-03T01:38:13;7.50;1.00
29353;DHT22;16344;50.364;8.944;2023-02-03T01:40:43;7.60;1.00
29353;DHT22;16344;50.364;8.944;2023-02-03T01:43:09;7.60;1.00
29353;DHT22;16344;50.364;8.944;2023-02-03T01:45:35;7.60;1.00
29353;DHT22;16344;50.364;8.944;2023-02-03T01:48:01;7.60;1.00
29353;DHT22;16344;50.364;8.944;2023-02-03T01:50:31;7.60;1.00
29353;DHT22;16344;50.364;8.944;2023-02-03T01:53:01;7.60;1.00
29353;DHT22;16344;50.364;8.944;2023-02-03T01:55:32;7.60;1.00
29353;DHT22;16344;50.364;8.944;2023-02-03T01:58:19;7.60;1.00
29353;DHT22;16344;50.364;8.944;2023-02-03T02:00:47;7.60;1.00
29353;DHT22;16344;50.364;8.944;2023-02-03T02:03:14;7.60;1.00
29353;DHT22;16344;50.364;8.944;2023-02-03T02:06:04;7.60;1.00
29353;DHT22;16344;50.364;8.944;2023-02-03T02:08:30;7.60;1.00
29353;DHT22;16344;50.364;8.944;2023-02-03T02:11:00;7.60;1.00
29353;DHT22;16344;50.364;8.944;2023-02-03T02:13:31;7.70;1.00
29353;DHT22;16344;50.364;8.944;2023-02-03T02:16:15;7.70;1.00
29353;DHT22;16344;50.364;8.944;2023-02-03T02:21:46;7.60;1.00
29353;DHT22;16344;50.364;8.944;2023-02-03T02:30:47;7.60;1.00
29353;DHT22;16344;50.364;8.944;2023-02-03T02:38:56;7.60;1.00
29353;DHT22;16344;50.364;8.944;2023-02-03T02:41:28;7.60;1.00
29353;DHT22;16344;50.364;8.944;2023-02-03T02:44:02;7.60;1.00
29353;DHT22;16344;50.364;8.944;2023-02-03T02:46:36;7.60;1.00
29353;DHT22;16344;50.364;8.944;2023-02-03T02:49:12;7.70;1.00
29353;DHT22;16344;50.364;8.944;2023-02-03T02:51:40;7.70;1.00
29353;DHT22;16344;50.364;8.944;2023-02-03T02:54:12;7.60;1.00
29353;DHT22;16344;50.364;8.944;2023-02-03T02:56:39;7.60;1.00
29353;DHT22;16344;50.364;8.944;2023-02-03T02:59:08;7.60;1.00
29353;DHT22;16344;50.364;8.944;2023-02-03T03:01:35;7.60;1.00
29353;DHT22;16344;50.364;8.944;2023-02-03T03:04:03;7.60;1.00
29353;DHT22;16344;50.364;8.944;2023-02-03T03:06:36;7.60;1.00
29353;DHT22;16344;50.364;8.944;2023-02-03T03:09:19;7.70;1.00
29353;DHT22;16344;50.364;8.944;2023-02-03T03:11:51;7.70;1.00
29353;DHT22;16344;50.364;8.944;2023-02-03T03:14:21;7.70;1.00
29353;DHT22;16344;50.364;8.944;2023-02-03T03:16:55;7.70;1.00
29353;DHT22;16344;50.364;8.944;2023-02-03T03:19:25;7.70;1.00
29353;DHT22;16344;50.364;8.944;2023-02-03T03:22:00;7.70;1.00
29353;DHT22;16344;50.364;8.944;2023-02-03T03:24:30;7.70;1.00
29353;DHT22;16344;50.364;8.944;2023-02-03T03:27:11;7.70;1.00
29353;DHT22;16344;50.364;8.944;2023-02-03T03:29:45;7.70;1.00
29353;DHT22;16344;50.364;8.944;2023-02-03T03:32:12;7.70;1.00
29353;DHT22;16344;50.364;8.944;2023-02-03T03:34:38;7.60;1.00
29353;DHT22;16344;50.364;8.944;2023-02-03T03:40:01;7.60;1.00
29353;DHT22;16344;50.364;8.944;2023-02-03T03:45:15;7.60;1.00
29353;DHT22;16344;50.364;8.944;2023-02-03T03:53:23;7.80;1.00
29353;DHT22;16344;50.364;8.944;2023-02-03T03:55:51;7.70;1.00
29353;DHT22;16344;50.364;8.944;2023-02-03T03:58:25;7.80;1.00
29353;DHT22;16344;50.364;8.944;2023-02-03T04:00:54;7.80;1.00
29353;DHT22;16344;50.364;8.944;2023-02-03T04:03:29;7.80;1.00
29353;DHT22;16344;50.364;8.944;2023-02-03T04:05:56;7.80;1.00
29353;DHT22;16344;50.364;8.944;2023-02-03T04:08:21;7.80;1.00
29353;DHT22;16344;50.364;8.944;2023-02-03T04:10:47;7.90;1.00
29353;DHT22;16344;50.364;8.944;2023-02-03T04:13:12;7.90;1.00
29353;DHT22;16344;50.364;8.944;2023-02-03T04:15:40;7.90;1.00
29353;DHT22;16344;50.364;8.944;2023-02-03T04:18:06;7.80;1.00
29353;DHT22;16344;50.364;8.944;2023-02-03T04:20:32;7.90;1.00
29353;DHT22;16344;50.364;8.944;2023-02-03T04:22:58;7.80;1.00
29353;DHT22;16344;50.364;8.944;2023-02-03T04:25:25;7.80;1.00
29353;DHT22;16344;50.364;8.944;2023-02-03T04:27:50;7.80;1.00
29353;DHT22;16344;50.364;8.944;2023-02-03T04:30:16;7.80;1.00
29353;DHT22;16344;50.364;8.944;2023-02-03T04:32:43;7.70;1.00
29353;DHT22;16344;50.364;8.944;2023-02-03T04:35:09;7.80;1.00
29353;DHT22;16344;50.364;8.944;2023-02-03T04:37:34;7.80;1.00
29353;DHT22;16344;50.364;8.944;2023-02-03T04:40:00;7.80;1.00
29353;DHT22;16344;50.364;8.944;2023-02-03T04:42:25;7.80;1.00
29353;DHT22;16344;50.364;8.944;2023-02-03T04:44:51;7.80;1.00
29353;DHT22;16344;50.364;8.944;2023-02-03T04:47:17;7.70;1.00
29353;DHT22;16344;50.364;8.944;2023-02-03T04:49:43;7.70;1.00
29353;DHT22;16344;50.364;8.944;2023-02-03T04:52:09;7.80;1.00
29353;DHT22;16344;50.364;8.944;2023-02-03T04:54:35;7.70;1.00
29353;DHT22;16344;50.364;8.944;2023-02-03T04:57:00;7.70;1.00
29353;DHT22;16344;50.364;8.944;2023-02-03T04:59:26;7.70;1.00
29353;DHT22;16344;50.364;8.944;2023-02-03T05:01:52;7.70;1.00
29353;DHT22;16344;50.364;8.944;2023-02-03T05:04:18;7.70;1.00
29353;DHT22;16344;50.364;8.944;2023-02-03T05:06:43;7.70;1.00
29353;DHT22;16344;50.364;8.944;2023-02-03T05:09:09;7.70;1.00
29353;DHT22;16344;50.364;8.944;2023-02-03T05:11:34;7.60;1.00
29353;DHT22;16344;50.364;8.944;2023-02-03T05:14:00;7.70;1.00
29353;DHT22;16344;50.364;8.944;2023-02-03T05:16:25;7.60;1.00
29353;DHT22;16344;50.364;8.944;2023-02-03T05:18:51;7.60;1.00
29353;DHT22;16344;50.364;8.944;2023-02-03T05:21:17;7.60;1.00
29353;DHT22;16344;50.364;8.944;2023-02-03T05:23:42;7.60;1.00
29353;DHT22;16344;50.364;8.944;2023-02-03T05:26:08;7.70;1.00
29353;DHT22;16344;50.364;8.944;2023-02-03T05:28:34;7.70;1.00
29353;DHT22;16344;50.364;8.944;2023-02-03T05:31:01;7.70;1.00
29353;DHT22;16344;50.364;8.944;2023-02-03T05:33:27;7.70;1.00
29353;DHT22;16344;50.364;8.944;2023-02-03T05:35:53;7.60;1.00
29353;DHT22;16344;50.364;8.944;2023-02-03T05:38:18;7.60;1.00
29353;DHT22;16344;50.364;8.944;2023-02-03T05:40:47;7.60;1.00
29353;DHT22;16344;50.364;8.944;2023-02-03T05:43:31;7.60;1.00
29353;DHT22;16344;50.364;8.944;2023-02-03T05:46:04;7.50;1.00
29353;DHT22;16344;50.364;8.944;2023-02-03T05:48:31;7.50;1.00
29353;DHT22;16344;50.364;8.944;2023-02-03T05:50:57;7.60;1.00
29353;DHT22;16344;50.364;8.944;2023-02-03T05:53:23;7.60;1.00
29353;DHT22;16344;50.364;8.944;2023-02-03T05:55:49;7.60;1.00
29353;DHT22;16344;50.364;8.944;2023-02-03T05:58:14;7.60;1.00
29353;DHT22;16344;50.364;8.944;2023-02-03T06:00:40;7.60;1.00
29353;DHT22;16344;50.364;8.944;2023-02-03T06:03:06;7.70;1.00
29353;DHT22;16344;50.364;8.944;2023-02-03T06:05:32;7.60;1.00
29353;DHT22;16344;50.364;8.944;2023-02-03T06:07:58;7.60;1.00
29353;DHT22;16344;50.364;8.944;2023-02-03T06:10:24;7.60;1.00
29353;DHT22;16344;50.364;8.944;2023-02-03T06:12:50;7.60;1.00
29353;DHT22;16344;50.364;8.944;2023-02-03T06:15:16;7.60;1.00
29353;DHT22;16344;50.364;8.944;2023-02-03T06:17:48;7.60;1.00
29353;DHT22;16344;50.364;8.944;2023-02-03T06:20:15;7.60;1.00
29353;DHT22;16344;50.364;8.944;2023-02-03T06:22:41;7.60;1.00
29353;DHT22;16344;50.364;8.944;2023-02-03T06:25:07;7.60;1.00
29353;DHT22;16344;50.364;8.944;2023-02-03T06:27:33;7.60;1.00
29353;DHT22;16344;50.364;8.944;2023-02-03T06:29:58;7.60;1.00
29353;DHT22;16344;50.364;8.944;2023-02-03T06:32:24;7.60;1.00
29353;DHT22;16344;50.364;8.944;2023-02-03T06:34:49;7.60;1.00
29353;DHT22;16344;50.364;8.944;2023-02-03T06:37:15;7.60;1.00
29353;DHT22;16344;50.364;8.944;2023-02-03T06:39:41;7.60;1.00
29353;DHT22;16344;50.364;8.944;2023-02-03T06:42:06;7.60;1.00
29353;DHT22;16344;50.364;8.944;2023-02-03T06:44:32;7.70;1.00
29353;DHT22;16344;50.364;8.944;2023-02-03T06:46:57;7.70;1.00
29353;DHT22;16344;50.364;8.944;2023-02-03T06:49:23;7.70;1.00
29353;DHT22;16344;50.364;8.944;2023-02-03T06:51:49;7.70;1.00
29353;DHT22;16344;50.364;8.944;2023-02-03T06:54:15;7.70;1.00
29353;DHT22;16344;50.364;8.944;2023-02-03T06:56:40;7.70;1.00
29353;DHT22;16344;50.364;8.944;2023-02-03T06:59:06;7.70;1.00
29353;DHT22;16344;50.364;8.944;2023-02-03T07:01:33;7.70;1.00
29353;DHT22;16344;50.364;8.944;2023-02-03T07:03:58;7.70;1.00
29353;DHT22;16344;50.364;8.944;2023-02-03T07:06:24;7.70;1.00
29353;DHT22;16344;50.364;8.944;2023-02-03T07:09:00;7.70;1.00
29353;DHT22;16344;50.364;8.944;2023-02-03T07:11:26;7.70;1.00
29353;DHT22;16344;50.364;8.944;2023-02-03T07:13:52;7.70;1.00
29353;DHT22;16344;50.364;8.944;2023-02-03T07:16:18;7.80;1.00
29353;DHT22;16344;50.364;8.944;2023-02-03T07:18:44;7.80;1.00
29353;DHT22;16344;50.364;8.944;2023-02-03T07:21:11;7.70;1.00
29353;DHT22;16344;50.364;8.944;2023-02-03T07:23:37;7.70;1.00
29353;DHT22;16344;50.364;8.944;2023-02-03T07:26:04;7.70;1.00
29353;DHT22;16344;50.364;8.944;2023-02-03T07:28:31;7.70;1.00
29353;DHT22;16344;50.364;8.944;2023-02-03T07:30:57;7.70;1.00
29353;DHT22;16344;50.364;8.944;2023-02-03T07:33:22;7.70;1.00
29353;DHT22;16344;50.364;8.944;2023-02-03T07:35:56;7.80;1.00
29353;DHT22;16344;50.364;8.944;2023-02-03T07:38:23;7.70;1.00
29353;DHT22;16344;50.364;8.944;2023-02-03T07:40:48;7.80;1.00
29353;DHT22;16344;50.364;8.944;2023-02-03T07:43:14;7.80;1.00
29353;DHT22;16344;50.364;8.944;2023-02-03T07:45:40;7.80;1.00
29353;DHT22;16344;50.364;8.944;2023-02-03T07:48:06;7.80;1.00
29353;DHT22;16344;50.364;8.944;2023-02-03T07:50:31;7.80;1.00
29353;DHT22;16344;50.364;8.944;2023-02-03T07:52:58;7.90;1.00
29353;DHT22;16344;50.364;8.944;2023-02-03T07:55:23;7.80;1.00
29353;DHT22;16344;50.364;8.944;2023-02-03T07:57:49;7.90;1.00
29353;DHT22;16344;50.364;8.944;2023-02-03T08:00:17;7.90;1.00
29353;DHT22;16344;50.364;8.944;2023-02-03T08:02:43;7.90;1.00
29353;DHT22;16344;50.364;8.944;2023-02-03T08:05:09;7.80;1.00
29353;DHT22;16344;50.364;8.944;2023-02-03T08:07:35;7.80;1.00
29353;DHT22;16344;50.364;8.944;2023-02-03T08:10:01;7.80;1.00
29353;DHT22;16344;50.364;8.944;2023-02-03T08:12:26;7.80;1.00
29353;DHT22;16344;50.364;8.944;2023-02-03T08:14:52;7.80;1.00
29353;DHT22;16344;50.364;8.944;2023-02-03T08:17:17;7.80;1.00
29353;DHT22;16344;50.364;8.944;2023-02-03T08:19:43;7.80;1.00
29353;DHT22;16344;50.364;8.944;2023-02-03T08:22:09;7.80;1.00
29353;DHT22;16344;50.364;8.944;2023-02-03T08:24:44;7.80;1.00
29353;DHT22;16344;50.364;8.944;2023-02-03T08:27:12;7.80;1.00
29353;DHT22;16344;50.364;8.944;2023-02-03T08:29:37;7.80;1.00
29353;DHT22;16344;50.364;8.944;2023-02-03T08:32:03;7.90;1.00
29353;DHT22;16344;50.364;8.944;2023-02-03T08:34:29;7.90;1.00
29353;DHT22;16344;50.364;8.944;2023-02-03T08:36:54;7.90;1.00
29353;DHT22;16344;50.364;8.944;2023-02-03T08:39:20;8.00;1.00
29353;DHT22;16344;50.364;8.944;2023-02-03T08:41:45;7.90;1.00
29353;DHT22;16344;50.364;8.944;2023-02-03T08:44:11;7.90;1.00
29353;DHT22;16344;50.364;8.944;2023-02-03T08:46:36;7.90;1.00
29353;DHT22;16344;50.364;8.944;2023-02-03T08:49:08;8.00;1.00
29353;DHT22;16344;50.364;8.944;2023-02-03T08:51:33;8.00;1.00
29353;DHT22;16344;50.364;8.944;2023-02-03T08:53:59;8.00;1.00
29353;DHT22;16344;50.364;8.944;2023-02-03T08:56:24;8.10;1.00
29353;DHT22;16344;50.364;8.944;2023-02-03T08:58:51;8.10;1.00
29353;DHT22;16344;50.364;8.944;2023-02-03T09:01:16;8.10;1.00
29353;DHT22;16344;50.364;8.944;2023-02-03T09:03:42;8.10;1.00
29353;DHT22;16344;50.364;8.944;2023-02-03T09:06:08;8.10;1.00
29353;DHT22;16344;50.364;8.944;2023-02-03T09:08:36;8.20;1.00
29353;DHT22;16344;50.364;8.944;2023-02-03T09:11:01;8.20;1.00
29353;DHT22;16344;50.364;8.944;2023-02-03T09:13:27;8.30;1.00
29353;DHT22;16344;50.364;8.944;2023-02-03T09:15:52;8.20;1.00
29353;DHT22;16344;50.364;8.944;2023-02-03T09:18:18;8.20;1.00
29353;DHT22;16344;50.364;8.944;2023-02-03T09:20:43;8.20;1.00
29353;DHT22;16344;50.364;8.944;2023-02-03T09:23:09;8.30;1.00
29353;DHT22;16344;50.364;8.944;2023-02-03T09:25:34;8.20;1.00
29353;DHT22;16344;50.364;8.944;2023-02-03T09:28:00;8.40;1.00
29353;DHT22;16344;50.364;8.944;2023-02-03T09:30:27;8.30;1.00
29353;DHT22;16344;50.364;8.944;2023-02-03T09:32:52;8.40;1.00
29353;DHT22;16344;50.364;8.944;2023-02-03T09:35:19;8.40;1.00
29353;DHT22;16344;50.364;8.944;2023-02-03T09:37:45;8.40;1.00
29353;DHT22;16344;50.364;8.944;2023-02-03T09:40:40;8.40;1.00
29353;DHT22;16344;50.364;8.944;2023-02-03T09:45:50;8.50;1.00
29353;DHT22;16344;50.364;8.944;2023-02-03T09:48:20;8.50;1.00
29353;DHT22;16344;50.364;8.944;2023-02-03T09:50:48;8.50;1.00
29353;DHT22;16344;50.364;8.944;2023-02-03T09:53:34;8.50;1.00
29353;DHT22;16344;50.364;8.944;2023-02-03T09:56:01;8.60;1.00
29353;DHT22;16344;50.364;8.944;2023-02-03T09:58:32;8.60;1.00
29353;DHT22;16344;50.364;8.944;2023-02-03T10:00:59;8.60;1.00
29353;DHT22;16344;50.364;8.944;2023-02-03T10:09:08;8.60;1.00
29353;DHT22;16344;50.364;8.944;2023-02-03T10:14:34;8.70;1.00
29353;DHT22;16344;50.364;8.944;2023-02-03T10:17:25;8.80;1.00
29353;DHT22;16344;50.364;8.944;2023-02-03T10:22:29;8.90;1.00
29353;DHT22;16344;50.364;8.944;2023-02-03T10:25:18;8.90;1.00
29353;DHT22;16344;50.364;8.944;2023-02-03T10:27:45;8.80;1.00
29353;DHT22;16344;50.364;8.944;2023-02-03T10:30:36;8.90;1.00
29353;DHT22;16344;50.364;8.944;2023-02-03T10:33:12;8.90;1.00
29353;DHT22;16344;50.364;8.944;2023-02-03T10:39:09;8.90;1.00
29353;DHT22;16344;50.364;8.944;2023-02-03T10:41:38;8.90;1.00
29353;DHT22;16344;50.364;8.944;2023-02-03T10:44:06;8.90;1.00
29353;DHT22;16344;50.364;8.944;2023-02-03T10:46:37;8.90;1.00
29353;DHT22;16344;50.364;8.944;2023-02-03T10:49:03;8.90;1.00
29353;DHT22;16344;50.364;8.944;2023-02-03T10:51:35;8.90;1.00
29353;DHT22;16344;50.364;8.944;2023-02-03T10:54:01;8.90;1.00
29353;DHT22;16344;50.364;8.944;2023-02-03T10:56:37;9.00;1.00
29353;DHT22;16344;50.364;8.944;2023-02-03T10:59:04;8.90;1.00
29353;DHT22;16344;50.364;8.944;2023-02-03T11:01:40;8.90;1.00
29353;DHT22;16344;50.364;8.944;2023-02-03T11:06:56;9.00;1.00
29353;DHT22;16344;50.364;8.944;2023-02-03T11:09:38;9.00;1.00
29353;DHT22;16344;50.364;8.944;2023-02-03T11:14:41;9.00;1.00
29353;DHT22;16344;50.364;8.944;2023-02-03T11:19:44;8.90;1.00
29353;DHT22;16344;50.364;8.944;2023-02-03T11:22:11;8.90;1.00
29353;DHT22;16344;50.364;8.944;2023-02-03T11:24:40;8.90;1.00
29353;DHT22;16344;50.364;8.944;2023-02-03T11:27:09;8.90;1.00
29353;DHT22;16344;50.364;8.944;2023-02-03T11:29:40;8.90;1.00
29353;DHT22;16344;50.364;8.944;2023-02-03T11:32:18;8.90;1.00
29353;DHT22;16344;50.364;8.944;2023-02-03T11:35:12;8.80;1.00
29353;DHT22;16344;50.364;8.944;2023-02-03T11:37:41;8.80;1.00
29353;DHT22;16344;50.364;8.944;2023-02-03T11:42:38;8.90;1.00
29353;DHT22;16344;50.364;8.944;2023-02-03T11:45:12;8.90;1.00
29353;DHT22;16344;50.364;8.944;2023-02-03T11:50:52;8.90;1.00
29353;DHT22;16344;50.364;8.944;2023-02-03T11:53:42;8.80;1.00
29353;DHT22;16344;50.364;8.944;2023-02-03T12:10:54;8.80;1.00
29353;DHT22;16344;50.364;8.944;2023-02-03T12:13:58;8.80;1.00
29353;DHT22;16344;50.364;8.944;2023-02-03T12:19:27;8.80;1.00
29353;DHT22;16344;50.364;8.944;2023-02-03T12:30:27;8.80;1.00
29353;DHT22;16344;50.364;8.944;2023-02-03T12:32:59;8.80;1.00
29353;DHT22;16344;50.364;8.944;2023-02-03T12:38:06;8.70;1.00
29353;DHT22;16344;50.364;8.944;2023-02-03T12:40:56;8.70;1.00
29353;DHT22;16344;50.364;8.944;2023-02-03T12:46:35;8.70;1.00
29353;DHT22;16344;50.364;8.944;2023-02-03T12:51:55;8.70;1.00
29353;DHT22;16344;50.364;8.944;2023-02-03T12:54:40;8.70;1.00
29353;DHT22;16344;50.364;8.944;2023-02-03T12:57:23;8.60;1.00
29353;DHT22;16344;50.364;8.944;2023-02-03T13:00:17;8.60;1.00
29353;DHT22;16344;50.364;8.944;2023-02-03T13:03:05;8.50;1.00
29353;DHT22;16344;50.364;8.944;2023-02-03T13:05:41;8.50;2.50
29353;DHT22;16344;50.364;8.944;2023-02-03T13:08:25;8.50;7.30
29353;DHT22;16344;50.364;8.944;2023-02-03T13:11:07;8.50;8.10
29353;DHT22;16344;50.364;8.944;2023-02-03T13:13:56;8.50;10.60
29353;DHT22;16344;50.364;8.944;2023-02-03T13:16:27;8.50;11.90
29353;DHT22;16344;50.364;8.944;2023-02-03T13:18:59;8.40;12.40
29353;DHT22;16344;50.364;8.944;2023-02-03T13:21:26;8.50;14.90
29353;DHT22;16344;50.364;8.944;2023-02-03T13:23:52;8.40;14.40
29353;DHT22;16344;50.364;8.944;2023-02-03T13:34:48;8.50;15.10
29353;DHT22;16344;50.364;8.944;2023-02-03T13:37:28;8.40;14.80
29353;DHT22;16344;50.364;8.944;2023-02-03T13:40:16;8.50;14.20
29353;DHT22;16344;50.364;8.944;2023-02-03T13:42:50;8.40;12.30
29353;DHT22;16344;50.364;8.944;2023-02-03T13:45:36;8.40;12.90
29353;DHT22;16344;50.364;8.944;2023-02-03T13:48:21;8.50;12.60
29353;DHT22;16344;50.364;8.944;2023-02-03T13:50:50;8.50;9.10
29353;DHT22;16344;50.364;8.944;2023-02-03T13:53:23;8.50;7.50
29353;DHT22;16344;50.364;8.944;2023-02-03T13:55:55;8.50;8.10
29353;DHT22;16344;50.364;8.944;2023-02-03T13:58:37;8.50;8.40
29353;DHT22;16344;50.364;8.944;2023-02-03T14:01:37;8.50;6.60
29353;DHT22;16344;50.364;8.944;2023-02-03T14:14:57;8.60;10.60
29353;DHT22;16344;50.364;8.944;2023-02-03T14:19:59;8.60;7.20
29353;DHT22;16344;50.364;8.944;2023-02-03T14:22:25;8.70;7.10
29353;DHT22;16344;50.364;8.944;2023-02-03T14:24:55;8.70;5.80
29353;DHT22;16344;50.364;8.944;2023-02-03T14:27:27;8.70;4.70
29353;DHT22;16344;50.364;8.944;2023-02-03T14:30:12;8.70;4.30
29353;DHT22;16344;50.364;8.944;2023-02-03T14:32:55;8.70;2.70
29353;DHT22;16344;50.364;8.944;2023-02-03T14:35:36;8.70;3.10
29353;DHT22;16344;50.364;8.944;2023-02-03T14:38:08;8.60;1.20
29353;DHT22;16344;50.364;8.944;2023-02-03T14:40:56;8.70;2.10
29353;DHT22;16344;50.364;8.944;2023-02-03T14:46:14;8.70;1.00
29353;DHT22;16344;50.364;8.944;2023-02-03T14:56:58;8.90;1.00
29353;DHT22;16344;50.364;8.944;2023-02-03T14:59:55;8.80;1.00
29353;DHT22;16344;50.364;8.944;2023-02-03T15:02:26;8.80;1.00
29353;DHT22;16344;50.364;8.944;2023-02-03T15:07:41;8.80;4.80
29353;DHT22;16344;50.364;8.944;2023-02-03T15:13:04;8.80;1.00
29353;DHT22;16344;50.364;8.944;2023-02-03T15:15:33;8.80;1.00
29353;DHT22;16344;50.364;8.944;2023-02-03T15:18:19;8.80;3.80
29353;DHT22;16344;50.364;8.944;2023-02-03T15:20:46;8.80;3.70
29353;DHT22;16344;50.364;8.944;2023-02-03T15:23:21;8.80;3.80
29353;DHT22;16344;50.364;8.944;2023-02-03T15:26:02;8.80;4.20
29353;DHT22;16344;50.364;8.944;2023-02-03T15:28:28;8.80;7.60
29353;DHT22;16344;50.364;8.944;2023-02-03T15:31:00;8.80;7.20
29353;DHT22;16344;50.364;8.944;2023-02-03T15:33:28;8.80;9.80
29353;DHT22;16344;50.364;8.944;2023-02-03T15:36:02;8.70;13.40
29353;DHT22;16344;50.364;8.944;2023-02-03T15:38:44;8.80;12.90
29353;DHT22;16344;50.364;8.944;2023-02-03T15:41:24;8.80;10.90
29353;DHT22;16344;50.364;8.944;2023-02-03T15:43:58;8.80;11.10
29353;DHT22;16344;50.364;8.944;2023-02-03T15:46:27;8.70;9.00
29353;DHT22;16344;50.364;8.944;2023-02-03T15:49:01;8.70;4.90
29353;DHT22;16344;50.364;8.944;2023-02-03T15:51:31;8.70;6.30
29353;DHT22;16344;50.364;8.944;2023-02-03T15:54:10;8.70;3.60
29353;DHT22;16344;50.364;8.944;2023-02-03T15:57:01;8.80;1.80
29353;DHT22;16344;50.364;8.944;2023-02-03T15:59:33;8.70;1.00
29353;DHT22;16344;50.364;8.944;2023-02-03T16:02:04;8.70;1.00
29353;DHT22;16344;50.364;8.944;2023-02-03T16:04:31;8.70;1.00
29353;DHT22;16344;50.364;8.944;2023-02-03T16:06:57;8.70;1.00
29353;DHT22;16344;50.364;8.944;2023-02-03T16:09:32;8.70;1.00
29353;DHT22;16344;50.364;8.944;2023-02-03T16:14:52;8.80;1.00
29353;DHT22;16344;50.364;8.944;2023-02-03T16:17:32;8.90;1.00
29353;DHT22;16344;50.364;8.944;2023-02-03T16:22:45;8.90;1.00
29353;DHT22;16344;50.364;8.944;2023-02-03T16:25:18;8.90;1.00
29353;DHT22;16344;50.364;8.944;2023-02-03T16:27:48;8.90;1.00
29353;DHT22;16344;50.364;8.944;2023-02-03T16:30:37;8.90;1.00
29353;DHT22;16344;50.364;8.944;2023-02-03T16:33:22;8.90;1.00
29353;DHT22;16344;50.364;8.944;2023-02-03T16:36:11;8.80;1.00
29353;DHT22;16344;50.364;8.944;2023-02-03T16:38:57;8.80;1.00
29353;DHT22;16344;50.364;8.944;2023-02-03T16:41:44;8.80;1.00
29353;DHT22;16344;50.364;8.944;2023-02-03T16:44:28;8.80;1.00
29353;DHT22;16344;50.364;8.944;2023-02-03T16:47:24;8.80;1.00
29353;DHT22;16344;50.364;8.944;2023-02-03T16:50:20;8.80;1.00
29353;DHT22;16344;50.364;8.944;2023-02-03T16:53:06;8.80;1.00
29353;DHT22;16344;50.364;8.944;2023-02-03T16:55:35;8.80;1.00
29353;DHT22;16344;50.364;8.944;2023-02-03T16:58:00;8.80;1.00
29353;DHT22;16344;50.364;8.944;2023-02-03T17:00:26;8.80;1.00
29353;DHT22;16344;50.364;8.944;2023-02-03T17:02:51;8.80;1.00
29353;DHT22;16344;50.364;8.944;2023-02-03T17:05:17;8.80;1.00
29353;DHT22;16344;50.364;8.944;2023-02-03T17:07:43;8.80;1.00
29353;DHT22;16344;50.364;8.944;2023-02-03T17:10:09;8.80;1.00
29353;DHT22;16344;50.364;8.944;2023-02-03T17:12:35;8.80;1.00
29353;DHT22;16344;50.364;8.944;2023-02-03T17:15:02;8.80;1.00
29353;DHT22;16344;50.364;8.944;2023-02-03T17:17:28;8.70;1.00
29353;DHT22;16344;50.364;8.944;2023-02-03T17:19:54;8.70;1.00
29353;DHT22;16344;50.364;8.944;2023-02-03T17:22:21;8.70;1.00
29353;DHT22;16344;50.364;8.944;2023-02-03T17:24:46;8.70;1.00
29353;DHT22;16344;50.364;8.944;2023-02-03T17:27:12;8.70;1.00
29353;DHT22;16344;50.364;8.944;2023-02-03T17:29:37;8.70;1.00
29353;DHT22;16344;50.364;8.944;2023-02-03T17:32:03;8.70;1.00
29353;DHT22;16344;50.364;8.944;2023-02-03T17:34:29;8.80;1.00
29353;DHT22;16344;50.364;8.944;2023-02-03T17:36:54;8.80;1.00
29353;DHT22;16344;50.364;8.944;2023-02-03T17:39:20;8.70;1.00
29353;DHT22;16344;50.364;8.944;2023-02-03T17:41:45;8.80;1.00
29353;DHT22;16344;50.364;8.944;2023-02-03T17:44:11;8.80;1.00
29353;DHT22;16344;50.364;8.944;2023-02-03T17:46:36;8.80;1.00
29353;DHT22;16344;50.364;8.944;2023-02-03T17:49:02;8.80;1.00
29353;DHT22;16344;50.364;8.944;2023-02-03T17:51:28;8.70;1.00
29353;DHT22;16344;50.364;8.944;2023-02-03T17:53:55;8.70;1.00
29353;DHT22;16344;50.364;8.944;2023-02-03T17:56:23;8.70;1.00
29353;DHT22;16344;50.364;8.944;2023-02-03T17:58:58;8.60;1.00
29353;DHT22;16344;50.364;8.944;2023-02-03T18:01:24;8.60;99.90
29353;DHT22;16344;50.364;8.944;2023-02-03T18:03:52;8.70;99.90
29353;DHT22;16344;50.364;8.944;2023-02-03T18:06:20;8.60;99.90
29353;DHT22;16344;50.364;8.944;2023-02-03T18:08:47;8.50;99.90
29353;DHT22;16344;50.364;8.944;2023-02-03T18:11:13;8.40;99.90
29353;DHT22;16344;50.364;8.944;2023-02-03T18:13:40;8.40;99.90
29353;DHT22;16344;50.364;8.944;2023-02-03T18:16:12;8.40;99.90
29353;DHT22;16344;50.364;8.944;2023-02-03T18:18:40;8.40;99.90
29353;DHT22;16344;50.364;8.944;2023-02-03T18:21:06;8.40;99.90
29353;DHT22;16344;50.364;8.944;2023-02-03T18:23:33;8.40;99.90
29353;DHT22;16344;50.364;8.944;2023-02-03T18:25:59;8.30;99.90
29353;DHT22;16344;50.364;8.944;2023-02-03T18:28:25;8.20;99.90
29353;DHT22;16344;50.364;8.944;2023-02-03T18:30:50;8.20;99.90
29353;DHT22;16344;50.364;8.944;2023-02-03T18:33:16;8.30;99.90